createdAt,value
2023-04-27T00:00:11.863Z,93.40
2023-04-27T00:05:16.622Z,92.73
2023-04-27T00:10:19.958Z,92.86
2023-04-27T00:15:24.115Z,93.63
2023-04-27T00:20:27.802Z,94.74
2023-04-27T00:25:31.036Z,95.50
2023-04-27T00:30:34.066Z,96.39
2023-04-27T00:35:37.205Z,97.87
2023-04-27T00:40:41.067Z,98.24
2023-04-27T00:45:45.946Z,98.58
2023-04-27T00:50:49.583Z,99.13
2023-04-27T00:55:52.655Z,99.60
2023-04-27T01:00:57.210Z,100.00
2023-04-27T01:06:01.986Z,100.00
2023-04-27T01:11:05.810Z,100.00
2023-04-27T01:16:09.402Z,100.00
2023-04-27T01:21:16.141Z,100.00
2023-04-27T01:26:20.142Z,100.00
2023-04-27T01:31:25.062Z,100.00
2023-04-27T01:36:32.633Z,100.00
2023-04-27T01:41:39.407Z,100.00
2023-04-27T01:46:43.368Z,100.00
2023-04-27T01:51:47.243Z,100.00
2023-04-27T01:56:53.469Z,100.00
2023-04-27T02:01:56.992Z,100.00
2023-04-27T02:07:01.112Z,100.00
2023-04-27T02:12:06.454Z,100.00
2023-04-27T02:17:09.893Z,100.00
2023-04-27T02:22:14.027Z,100.00
2023-04-27T02:27:17.234Z,99.91
2023-04-27T02:32:21.311Z,99.78
2023-04-27T02:37:24.466Z,99.33
2023-04-27T02:42:27.596Z,99.54
2023-04-27T02:47:31.793Z,98.94
2023-04-27T02:52:36.006Z,99.25
2023-04-27T02:57:39.519Z,98.80
2023-04-27T03:02:43.833Z,98.41
2023-04-27T03:07:47.350Z,98.42
2023-04-27T03:12:51.226Z,98.07
2023-04-27T03:17:55.169Z,96.96
2023-04-27T03:22:59.144Z,96.84
2023-04-27T03:28:02.752Z,96.84
2023-04-27T03:33:06.100Z,96.74
2023-04-27T03:38:09.530Z,96.79
2023-04-27T03:43:12.573Z,96.70
2023-04-27T03:48:16.849Z,96.98
2023-04-27T03:53:21.063Z,96.71
2023-04-27T03:58:25.724Z,96.90
2023-04-27T04:03:50.998Z,95.99
2023-04-27T04:08:55.096Z,94.64
2023-04-27T04:13:59.224Z,92.81
2023-04-27T04:19:03.194Z,92.03
2023-04-27T04:24:08.030Z,89.99
2023-04-27T04:29:11.595Z,88.68
2023-04-27T04:34:16.118Z,87.66
2023-04-27T04:39:23.298Z,87.02
2023-04-27T04:44:27.072Z,85.99
2023-04-27T04:49:30.714Z,84.65
2023-04-27T04:54:34.724Z,84.10
2023-04-27T04:59:39.006Z,83.40
2023-04-27T05:04:42.980Z,83.05
2023-04-27T05:09:46.724Z,80.72
2023-04-27T05:14:51.997Z,79.28
2023-04-27T05:19:55.616Z,74.08
2023-04-27T05:24:59.452Z,69.57
2023-04-27T05:30:02.856Z,71.14
2023-04-27T05:35:06.313Z,68.33
2023-04-27T05:40:10.048Z,60.48
2023-04-27T05:45:13.944Z,57.55
2023-04-27T05:50:17.581Z,53.42
2023-04-27T05:55:21.942Z,56.19
2023-04-27T06:00:25.706Z,57.27
2023-04-27T06:05:29.149Z,57.33
2023-04-27T06:10:34.600Z,57.52
2023-04-27T06:15:38.027Z,53.57
2023-04-27T06:20:43.197Z,47.87
2023-04-27T06:25:46.958Z,40.94
2023-04-27T06:30:50.606Z,43.86
2023-04-27T06:35:54.349Z,37.24
2023-04-27T06:40:58.264Z,36.25
2023-04-27T06:46:02.029Z,34.70
2023-04-27T06:51:05.968Z,34.74
2023-04-27T06:56:12.105Z,33.56
2023-04-27T07:01:16.260Z,32.32
2023-04-27T07:06:19.881Z,33.83
2023-04-27T07:11:23.976Z,31.19
2023-04-27T07:16:28.637Z,32.29
2023-04-27T07:21:32.087Z,29.95
2023-04-27T07:26:35.314Z,28.61
2023-04-27T07:31:38.554Z,28.81
2023-04-27T07:36:42.200Z,29.59
2023-04-27T07:41:45.660Z,32.63
2023-04-27T07:46:49.659Z,30.31
2023-04-27T07:51:53.155Z,30.17
2023-04-27T07:56:57.583Z,32.83
2023-04-27T08:02:17.704Z,28.10
2023-04-27T08:07:23.414Z,27.70
2023-04-27T08:12:26.874Z,30.59
2023-04-27T08:17:31.375Z,31.48
2023-04-27T08:22:35.111Z,31.90
2023-04-27T08:27:41.311Z,28.69
2023-04-27T08:32:45.357Z,28.38
2023-04-27T08:37:48.891Z,31.40
2023-04-27T08:42:57.069Z,31.03
2023-04-27T08:48:01.801Z,33.33
2023-04-27T08:53:05.974Z,31.25
2023-04-27T08:58:09.928Z,31.68
2023-04-27T09:03:23.708Z,31.13
2023-04-27T09:08:26.912Z,28.76
2023-04-27T09:13:37.002Z,29.50
2023-04-27T09:18:43.915Z,29.83
2023-04-27T09:23:47.834Z,28.64
2023-04-27T09:28:53.148Z,31.55
2023-04-27T09:33:57.019Z,27.67
2023-04-27T09:39:05.531Z,29.33
2023-04-27T09:44:09.012Z,28.12
2023-04-27T09:49:14.397Z,26.43
2023-04-27T09:54:18.387Z,26.79
2023-04-27T09:59:46.200Z,28.25
2023-04-27T10:04:49.162Z,27.93
2023-04-27T10:09:52.848Z,25.86
2023-04-27T10:14:58.864Z,28.54
2023-04-27T10:20:04.900Z,29.23
2023-04-27T10:25:17.625Z,28.81
2023-04-27T10:30:23.024Z,26.56
2023-04-27T10:35:41.093Z,27.67
2023-04-27T10:41:01.825Z,29.24
2023-04-27T10:46:09.234Z,27.99
2023-04-27T10:51:16.815Z,31.80
2023-04-27T10:56:20.944Z,30.05
2023-04-27T11:01:28.242Z,27.69
2023-04-27T11:06:35.170Z,29.46
2023-04-27T11:11:38.209Z,27.70
2023-04-27T11:16:47.493Z,29.11
2023-04-27T11:21:51.101Z,31.78
2023-04-27T11:26:55.141Z,32.36
2023-04-27T11:31:58.247Z,29.27
2023-04-27T11:37:17.333Z,27.92
2023-04-27T11:42:25.179Z,29.68
2023-04-27T11:47:31.398Z,27.89
2023-04-27T11:52:40.252Z,25.04
2023-04-27T11:57:43.976Z,27.21
2023-04-27T12:02:47.085Z,27.20
2023-04-27T12:07:50.793Z,25.75
2023-04-27T12:12:55.211Z,26.69
2023-04-27T12:17:58.765Z,26.40
2023-04-27T12:23:02.577Z,25.07
2023-04-27T12:28:06.690Z,22.98
2023-04-27T12:33:11.447Z,23.68
2023-04-27T12:38:14.805Z,24.72
2023-04-27T12:43:18.545Z,23.22
2023-04-27T12:48:28.812Z,25.07
2023-04-27T12:53:33.116Z,22.96
2023-04-27T12:58:36.779Z,22.81
2023-04-27T13:03:40.391Z,24.07
2023-04-27T13:08:44.174Z,22.30
2023-04-27T13:13:48.150Z,23.12
2023-04-27T13:18:52.566Z,22.44
2023-04-27T13:23:59.581Z,22.53
2023-04-27T13:29:05.049Z,24.60
2023-04-27T13:34:08.997Z,23.02
2023-04-27T13:39:13.269Z,21.40
2023-04-27T13:44:17.322Z,21.46
2023-04-27T13:49:21.536Z,22.88
2023-04-27T13:54:25.496Z,21.31
2023-04-27T13:59:29.361Z,21.66
2023-04-27T14:04:32.572Z,22.85
2023-04-27T14:09:36.644Z,24.27
2023-04-27T14:14:40.706Z,22.98
2023-04-27T14:19:44.101Z,22.48
2023-04-27T14:24:47.559Z,23.45
2023-04-27T14:29:51.707Z,22.79
2023-04-27T14:34:55.235Z,24.00
2023-04-27T14:39:58.972Z,24.57
2023-04-27T14:45:02.484Z,25.48
2023-04-27T14:50:07.178Z,25.32
2023-04-27T14:55:12.184Z,25.69
2023-04-27T15:00:16.062Z,25.84
2023-04-27T15:05:19.384Z,25.46
2023-04-27T15:10:23.070Z,26.31
2023-04-27T15:15:26.510Z,25.45
2023-04-27T15:20:29.968Z,26.30
2023-04-27T15:25:33.613Z,27.90
2023-04-27T15:30:37.112Z,29.53
2023-04-27T15:35:41.030Z,27.55
2023-04-27T15:40:44.386Z,30.14
2023-04-27T15:45:48.267Z,31.88
2023-04-27T15:50:52.586Z,31.21
2023-04-27T15:55:56.499Z,32.60
2023-04-27T16:01:00.853Z,34.02
2023-04-27T16:06:04.480Z,34.77
2023-04-27T16:11:08.168Z,34.75
2023-04-27T16:16:11.833Z,36.96
2023-04-27T16:21:15.434Z,37.75
2023-04-27T16:26:19.303Z,38.56
2023-04-27T16:31:23.307Z,40.33
2023-04-27T16:36:28.130Z,41.45
2023-04-27T16:41:31.565Z,42.71
2023-04-27T16:46:35.157Z,42.95
2023-04-27T16:51:39.246Z,43.73
2023-04-27T16:56:43.621Z,46.33
2023-04-27T17:01:47.332Z,51.39
2023-04-27T17:06:51.349Z,50.30
2023-04-27T17:11:55.845Z,50.84
2023-04-27T17:17:03.941Z,51.22
2023-04-27T17:22:10.960Z,52.91
2023-04-27T17:27:15.180Z,54.77
2023-04-27T17:32:18.986Z,57.48
2023-04-27T17:37:23.131Z,59.91
2023-04-27T17:42:26.804Z,60.27
2023-04-27T17:47:31.204Z,61.50
2023-04-27T17:52:34.701Z,63.74
2023-04-27T17:57:38.683Z,65.00
2023-04-27T18:02:42.024Z,64.96
2023-04-27T18:07:47.088Z,65.63
2023-04-27T18:12:50.553Z,65.43
2023-04-27T18:17:53.731Z,64.21
2023-04-27T18:22:57.482Z,64.58
2023-04-27T18:28:01.562Z,64.64
2023-04-27T18:33:05.876Z,65.56
2023-04-27T18:38:09.872Z,65.98
2023-04-27T18:43:13.294Z,64.50
2023-04-27T18:48:16.244Z,64.64
2023-04-27T18:53:19.780Z,65.88
2023-04-27T18:58:22.756Z,65.00
2023-04-27T19:03:25.812Z,62.98
2023-04-27T19:08:29.243Z,61.31
2023-04-27T19:13:32.302Z,60.55
2023-04-27T19:18:36.503Z,60.95
2023-04-27T19:23:40.168Z,62.03
2023-04-27T19:28:44.308Z,63.88
2023-04-27T19:38:58.336Z,64.36
2023-04-27T19:44:02.353Z,62.89
2023-04-27T19:49:06.787Z,62.99
2023-04-27T19:54:10.296Z,64.34
2023-04-27T19:59:13.325Z,65.59
2023-04-27T20:04:18.711Z,66.03
2023-04-27T20:09:21.948Z,67.26
2023-04-27T20:14:25.332Z,67.15
2023-04-27T20:19:28.723Z,66.17
2023-04-27T20:24:31.689Z,66.47
2023-04-27T20:29:34.854Z,67.26
2023-04-27T20:34:37.814Z,67.94
2023-04-27T20:39:41.714Z,68.42
2023-04-27T20:44:48.703Z,69.20
2023-04-27T20:49:51.659Z,69.46
2023-04-27T20:54:54.506Z,70.23
2023-04-27T20:59:57.348Z,70.40
2023-04-27T21:05:00.548Z,71.14
2023-04-27T21:10:06.491Z,71.77
2023-04-27T21:15:09.850Z,72.14
2023-04-27T21:20:13.110Z,72.64
2023-04-27T21:25:16.600Z,72.80
2023-04-27T21:30:19.809Z,72.52
2023-04-27T21:35:23.182Z,72.79
2023-04-27T21:40:26.356Z,72.72
2023-04-27T21:45:29.363Z,73.17
2023-04-27T21:50:32.374Z,73.80
2023-04-27T21:55:35.271Z,74.04
2023-04-27T22:00:39.052Z,74.82
2023-04-27T22:05:42.155Z,74.89
2023-04-27T22:10:45.555Z,75.12
2023-04-27T22:15:49.054Z,76.02
2023-04-27T22:20:52.147Z,76.61
2023-04-27T22:25:55.220Z,77.17
2023-04-27T22:30:58.273Z,77.44
2023-04-27T22:36:01.472Z,77.64
2023-04-27T22:41:04.656Z,78.27
2023-04-27T22:46:07.581Z,78.42
2023-04-27T22:51:11.064Z,78.05
2023-04-27T22:56:14.196Z,77.65
2023-04-27T23:01:17.434Z,77.73
2023-04-27T23:06:20.594Z,77.79
2023-04-27T23:11:24.430Z,77.18
2023-04-27T23:16:27.363Z,74.99
2023-04-27T23:21:30.282Z,74.88
2023-04-27T23:26:33.297Z,75.73
2023-04-27T23:31:36.314Z,76.97
2023-04-27T23:36:39.826Z,77.07
2023-04-27T23:41:42.653Z,77.89
2023-04-27T23:46:45.565Z,78.51
2023-04-27T23:51:50.360Z,79.21
2023-04-27T23:56:53.479Z,79.48
